sensor_id;sensor_type;location;lat;lon;timestamp;P1;durP1;ratioP1;P2;durP2;ratioP2
71150;SDS011;59071;42.138;24.768;2023-12-28T00:01:19;25.60;;;11.48;;
71150;SDS011;59071;42.138;24.768;2023-12-28T00:03:45;27.27;;;11.90;;
71150;SDS011;59071;42.138;24.768;2023-12-28T00:06:10;22.42;;;11.73;;
71150;SDS011;59071;42.138;24.768;2023-12-28T00:08:36;21.65;;;11.65;;
71150;SDS011;59071;42.138;24.768;2023-12-28T00:11:01;20.00;;;10.70;;
71150;SDS011;59071;42.138;24.768;2023-12-28T00:13:26;19.38;;;10.35;;
71150;SDS011;59071;42.138;24.768;2023-12-28T00:15:52;23.90;;;11.50;;
71150;SDS011;59071;42.138;24.768;2023-12-28T00:18:17;19.70;;;11.15;;
71150;SDS011;59071;42.138;24.768;2023-12-28T00:20:42;19.20;;;10.70;;
71150;SDS011;59071;42.138;24.768;2023-12-28T00:23:08;18.33;;;9.80;;
71150;SDS011;59071;42.138;24.768;2023-12-28T00:25:33;17.92;;;9.63;;
71150;SDS011;59071;42.138;24.768;2023-12-28T00:27:58;19.15;;;9.50;;
71150;SDS011;59071;42.138;24.768;2023-12-28T00:30:24;15.68;;;8.45;;
71150;SDS011;59071;42.138;24.768;2023-12-28T00:32:49;14.23;;;8.05;;
71150;SDS011;59071;42.138;24.768;2023-12-28T00:35:14;15.27;;;7.95;;
71150;SDS011;59071;42.138;24.768;2023-12-28T00:37:40;15.35;;;8.50;;
71150;SDS011;59071;42.138;24.768;2023-12-28T00:40:05;14.45;;;7.97;;
71150;SDS011;59071;42.138;24.768;2023-12-28T00:42:31;15.88;;;7.68;;
71150;SDS011;59071;42.138;24.768;2023-12-28T00:44:56;15.13;;;7.97;;
71150;SDS011;59071;42.138;24.768;2023-12-28T00:47:22;16.77;;;7.70;;
71150;SDS011;59071;42.138;24.768;2023-12-28T00:49:47;15.02;;;7.75;;
71150;SDS011;59071;42.138;24.768;2023-12-28T00:52:13;13.05;;;7.50;;
71150;SDS011;59071;42.138;24.768;2023-12-28T00:54:38;12.45;;;6.63;;
71150;SDS011;59071;42.138;24.768;2023-12-28T00:57:04;11.93;;;6.47;;
71150;SDS011;59071;42.138;24.768;2023-12-28T00:59:30;14.43;;;6.20;;
71150;SDS011;59071;42.138;24.768;2023-12-28T01:01:55;13.27;;;6.70;;
71150;SDS011;59071;42.138;24.768;2023-12-28T01:04:21;11.27;;;6.90;;
71150;SDS011;59071;42.138;24.768;2023-12-28T01:06:49;11.82;;;6.50;;
71150;SDS011;59071;42.138;24.768;2023-12-28T01:09:15;14.63;;;7.10;;
71150;SDS011;59071;42.138;24.768;2023-12-28T01:11:40;22.58;;;7.20;;
71150;SDS011;59071;42.138;24.768;2023-12-28T01:14:06;27.17;;;7.80;;
71150;SDS011;59071;42.138;24.768;2023-12-28T01:16:31;19.63;;;7.97;;
71150;SDS011;59071;42.138;24.768;2023-12-28T01:18:57;20.25;;;7.97;;
71150;SDS011;59071;42.138;24.768;2023-12-28T01:21:22;15.68;;;7.22;;
71150;SDS011;59071;42.138;24.768;2023-12-28T01:23:49;14.98;;;7.38;;
71150;SDS011;59071;42.138;24.768;2023-12-28T01:26:15;13.32;;;7.35;;
71150;SDS011;59071;42.138;24.768;2023-12-28T01:28:42;16.42;;;6.35;;
71150;SDS011;59071;42.138;24.768;2023-12-28T01:31:07;11.57;;;6.93;;
71150;SDS011;59071;42.138;24.768;2023-12-28T01:33:33;11.25;;;6.45;;
71150;SDS011;59071;42.138;24.768;2023-12-28T01:36:00;13.93;;;7.00;;
71150;SDS011;59071;42.138;24.768;2023-12-28T01:38:26;15.35;;;6.90;;
71150;SDS011;59071;42.138;24.768;2023-12-28T01:40:52;11.30;;;6.18;;
71150;SDS011;59071;42.138;24.768;2023-12-28T01:43:18;12.23;;;6.75;;
71150;SDS011;59071;42.138;24.768;2023-12-28T01:45:43;12.85;;;6.82;;
71150;SDS011;59071;42.138;24.768;2023-12-28T01:48:09;11.73;;;6.60;;
71150;SDS011;59071;42.138;24.768;2023-12-28T01:50:35;12.63;;;6.57;;
71150;SDS011;59071;42.138;24.768;2023-12-28T01:53:01;10.95;;;6.00;;
71150;SDS011;59071;42.138;24.768;2023-12-28T01:55:28;10.75;;;5.80;;
71150;SDS011;59071;42.138;24.768;2023-12-28T01:57:55;12.98;;;6.32;;
71150;SDS011;59071;42.138;24.768;2023-12-28T02:00:22;12.05;;;6.50;;
71150;SDS011;59071;42.138;24.768;2023-12-28T02:02:48;11.95;;;6.78;;
71150;SDS011;59071;42.138;24.768;2023-12-28T02:05:13;15.27;;;7.00;;
71150;SDS011;59071;42.138;24.768;2023-12-28T02:07:40;18.48;;;8.30;;
71150;SDS011;59071;42.138;24.768;2023-12-28T02:10:06;14.27;;;7.20;;
71150;SDS011;59071;42.138;24.768;2023-12-28T02:12:32;14.68;;;7.10;;
71150;SDS011;59071;42.138;24.768;2023-12-28T02:14:58;11.40;;;6.65;;
71150;SDS011;59071;42.138;24.768;2023-12-28T02:17:28;13.45;;;6.53;;
71150;SDS011;59071;42.138;24.768;2023-12-28T02:19:58;11.27;;;6.13;;
71150;SDS011;59071;42.138;24.768;2023-12-28T02:22:25;13.27;;;6.38;;
71150;SDS011;59071;42.138;24.768;2023-12-28T02:27:20;13.40;;;7.00;;
71150;SDS011;59071;42.138;24.768;2023-12-28T02:29:46;15.68;;;7.35;;
71150;SDS011;59071;42.138;24.768;2023-12-28T02:32:11;12.93;;;7.07;;
71150;SDS011;59071;42.138;24.768;2023-12-28T02:34:37;15.63;;;7.28;;
71150;SDS011;59071;42.138;24.768;2023-12-28T02:37:09;16.17;;;7.15;;
71150;SDS011;59071;42.138;24.768;2023-12-28T02:39:38;13.50;;;7.10;;
71150;SDS011;59071;42.138;24.768;2023-12-28T02:42:05;14.20;;;7.57;;
71150;SDS011;59071;42.138;24.768;2023-12-28T02:44:30;16.67;;;7.03;;
71150;SDS011;59071;42.138;24.768;2023-12-28T02:46:56;12.93;;;6.72;;
71150;SDS011;59071;42.138;24.768;2023-12-28T02:49:21;12.73;;;6.75;;
71150;SDS011;59071;42.138;24.768;2023-12-28T02:51:47;15.68;;;7.30;;
71150;SDS011;59071;42.138;24.768;2023-12-28T02:54:12;14.63;;;6.85;;
71150;SDS011;59071;42.138;24.768;2023-12-28T02:56:39;14.30;;;7.68;;
71150;SDS011;59071;42.138;24.768;2023-12-28T02:59:05;14.27;;;6.85;;
71150;SDS011;59071;42.138;24.768;2023-12-28T03:01:31;13.38;;;7.43;;
71150;SDS011;59071;42.138;24.768;2023-12-28T03:03:56;15.25;;;7.18;;
71150;SDS011;59071;42.138;24.768;2023-12-28T03:06:21;14.23;;;7.32;;
71150;SDS011;59071;42.138;24.768;2023-12-28T03:08:47;14.45;;;7.20;;
71150;SDS011;59071;42.138;24.768;2023-12-28T03:11:12;15.00;;;7.18;;
71150;SDS011;59071;42.138;24.768;2023-12-28T03:13:37;17.52;;;6.80;;
71150;SDS011;59071;42.138;24.768;2023-12-28T03:16:03;15.75;;;7.18;;
71150;SDS011;59071;42.138;24.768;2023-12-28T03:18:28;18.65;;;7.75;;
71150;SDS011;59071;42.138;24.768;2023-12-28T03:20:54;13.13;;;7.57;;
71150;SDS011;59071;42.138;24.768;2023-12-28T03:23:19;16.67;;;7.60;;
71150;SDS011;59071;42.138;24.768;2023-12-28T03:25:45;16.83;;;7.65;;
71150;SDS011;59071;42.138;24.768;2023-12-28T03:28:10;11.85;;;7.32;;
71150;SDS011;59071;42.138;24.768;2023-12-28T03:30:35;18.05;;;7.88;;
71150;SDS011;59071;42.138;24.768;2023-12-28T03:33:01;14.52;;;7.68;;
71150;SDS011;59071;42.138;24.768;2023-12-28T03:35:26;17.13;;;7.93;;
71150;SDS011;59071;42.138;24.768;2023-12-28T03:37:51;16.15;;;7.72;;
71150;SDS011;59071;42.138;24.768;2023-12-28T03:40:17;16.98;;;8.43;;
71150;SDS011;59071;42.138;24.768;2023-12-28T03:42:42;13.85;;;8.15;;
71150;SDS011;59071;42.138;24.768;2023-12-28T03:45:09;16.67;;;7.88;;
71150;SDS011;59071;42.138;24.768;2023-12-28T03:47:34;14.80;;;8.07;;
71150;SDS011;59071;42.138;24.768;2023-12-28T03:50:00;17.23;;;9.23;;
71150;SDS011;59071;42.138;24.768;2023-12-28T03:52:26;20.75;;;10.35;;
71150;SDS011;59071;42.138;24.768;2023-12-28T03:54:51;21.20;;;9.77;;
71150;SDS011;59071;42.138;24.768;2023-12-28T03:57:17;20.50;;;10.27;;
71150;SDS011;59071;42.138;24.768;2023-12-28T03:59:42;21.92;;;8.93;;
71150;SDS011;59071;42.138;24.768;2023-12-28T04:02:07;20.80;;;8.32;;
71150;SDS011;59071;42.138;24.768;2023-12-28T04:04:33;17.17;;;8.07;;
71150;SDS011;59071;42.138;24.768;2023-12-28T04:06:58;15.43;;;8.45;;
71150;SDS011;59071;42.138;24.768;2023-12-28T04:09:23;16.08;;;8.00;;
71150;SDS011;59071;42.138;24.768;2023-12-28T04:11:49;18.05;;;7.95;;
71150;SDS011;59071;42.138;24.768;2023-12-28T04:14:14;17.13;;;8.38;;
71150;SDS011;59071;42.138;24.768;2023-12-28T04:16:39;21.67;;;8.68;;
71150;SDS011;59071;42.138;24.768;2023-12-28T04:19:05;13.93;;;8.05;;
71150;SDS011;59071;42.138;24.768;2023-12-28T04:21:30;18.30;;;8.57;;
71150;SDS011;59071;42.138;24.768;2023-12-28T04:23:55;13.07;;;7.40;;
71150;SDS011;59071;42.138;24.768;2023-12-28T04:26:21;15.38;;;8.23;;
71150;SDS011;59071;42.138;24.768;2023-12-28T04:28:46;17.27;;;8.27;;
71150;SDS011;59071;42.138;24.768;2023-12-28T04:31:12;15.52;;;8.13;;
71150;SDS011;59071;42.138;24.768;2023-12-28T04:33:37;16.30;;;7.30;;
71150;SDS011;59071;42.138;24.768;2023-12-28T04:36:03;16.02;;;7.90;;
71150;SDS011;59071;42.138;24.768;2023-12-28T04:38:29;16.08;;;8.00;;
71150;SDS011;59071;42.138;24.768;2023-12-28T04:40:55;15.02;;;8.50;;
71150;SDS011;59071;42.138;24.768;2023-12-28T04:43:20;20.70;;;8.90;;
71150;SDS011;59071;42.138;24.768;2023-12-28T04:45:48;16.00;;;7.85;;
71150;SDS011;59071;42.138;24.768;2023-12-28T04:48:14;15.32;;;7.70;;
71150;SDS011;59071;42.138;24.768;2023-12-28T04:50:39;14.77;;;7.88;;
71150;SDS011;59071;42.138;24.768;2023-12-28T04:53:05;16.67;;;7.50;;
71150;SDS011;59071;42.138;24.768;2023-12-28T04:55:30;14.00;;;7.47;;
71150;SDS011;59071;42.138;24.768;2023-12-28T04:57:55;14.25;;;7.55;;
71150;SDS011;59071;42.138;24.768;2023-12-28T05:00:21;15.93;;;7.60;;
71150;SDS011;59071;42.138;24.768;2023-12-28T05:02:46;12.98;;;7.75;;
71150;SDS011;59071;42.138;24.768;2023-12-28T05:05:12;16.05;;;7.90;;
71150;SDS011;59071;42.138;24.768;2023-12-28T05:07:37;14.93;;;7.35;;
71150;SDS011;59071;42.138;24.768;2023-12-28T05:10:03;13.27;;;7.28;;
71150;SDS011;59071;42.138;24.768;2023-12-28T05:12:29;13.18;;;7.15;;
71150;SDS011;59071;42.138;24.768;2023-12-28T05:14:54;12.65;;;7.13;;
71150;SDS011;59071;42.138;24.768;2023-12-28T05:17:20;11.88;;;6.20;;
71150;SDS011;59071;42.138;24.768;2023-12-28T05:19:45;11.77;;;6.72;;
71150;SDS011;59071;42.138;24.768;2023-12-28T05:22:10;9.70;;;6.18;;
71150;SDS011;59071;42.138;24.768;2023-12-28T05:24:37;10.27;;;5.40;;
71150;SDS011;59071;42.138;24.768;2023-12-28T05:27:03;11.25;;;5.57;;
71150;SDS011;59071;42.138;24.768;2023-12-28T05:29:28;13.23;;;5.82;;
71150;SDS011;59071;42.138;24.768;2023-12-28T05:31:53;10.90;;;5.50;;
71150;SDS011;59071;42.138;24.768;2023-12-28T05:34:19;12.77;;;5.65;;
71150;SDS011;59071;42.138;24.768;2023-12-28T05:36:44;12.73;;;5.75;;
71150;SDS011;59071;42.138;24.768;2023-12-28T05:39:11;9.52;;;5.75;;
71150;SDS011;59071;42.138;24.768;2023-12-28T05:41:38;11.20;;;4.88;;
71150;SDS011;59071;42.138;24.768;2023-12-28T05:44:04;8.10;;;4.88;;
71150;SDS011;59071;42.138;24.768;2023-12-28T05:46:29;11.68;;;5.45;;
71150;SDS011;59071;42.138;24.768;2023-12-28T05:48:54;13.00;;;6.07;;
71150;SDS011;59071;42.138;24.768;2023-12-28T05:51:20;13.35;;;6.05;;
71150;SDS011;59071;42.138;24.768;2023-12-28T05:53:46;11.98;;;5.78;;
71150;SDS011;59071;42.138;24.768;2023-12-28T05:56:11;12.93;;;6.07;;
71150;SDS011;59071;42.138;24.768;2023-12-28T05:58:37;11.80;;;5.95;;
71150;SDS011;59071;42.138;24.768;2023-12-28T06:01:03;13.00;;;6.32;;
71150;SDS011;59071;42.138;24.768;2023-12-28T06:03:32;14.07;;;6.20;;
71150;SDS011;59071;42.138;24.768;2023-12-28T06:05:57;10.75;;;5.88;;
71150;SDS011;59071;42.138;24.768;2023-12-28T06:08:23;9.75;;;5.78;;
71150;SDS011;59071;42.138;24.768;2023-12-28T06:10:49;15.18;;;5.80;;
71150;SDS011;59071;42.138;24.768;2023-12-28T06:13:14;12.60;;;7.00;;
71150;SDS011;59071;42.138;24.768;2023-12-28T06:15:40;12.70;;;7.28;;
71150;SDS011;59071;42.138;24.768;2023-12-28T06:18:05;15.32;;;6.97;;
71150;SDS011;59071;42.138;24.768;2023-12-28T06:20:31;13.35;;;6.25;;
71150;SDS011;59071;42.138;24.768;2023-12-28T06:22:56;9.68;;;5.45;;
71150;SDS011;59071;42.138;24.768;2023-12-28T06:25:21;11.95;;;5.72;;
71150;SDS011;59071;42.138;24.768;2023-12-28T06:27:47;13.68;;;7.20;;
71150;SDS011;59071;42.138;24.768;2023-12-28T06:30:12;13.20;;;7.32;;
71150;SDS011;59071;42.138;24.768;2023-12-28T06:32:38;13.00;;;7.25;;
71150;SDS011;59071;42.138;24.768;2023-12-28T06:35:03;15.48;;;7.80;;
71150;SDS011;59071;42.138;24.768;2023-12-28T06:37:29;13.48;;;7.07;;
71150;SDS011;59071;42.138;24.768;2023-12-28T06:39:54;14.45;;;7.32;;
71150;SDS011;59071;42.138;24.768;2023-12-28T06:42:20;17.35;;;7.15;;
71150;SDS011;59071;42.138;24.768;2023-12-28T06:44:45;13.95;;;7.00;;
71150;SDS011;59071;42.138;24.768;2023-12-28T06:47:11;14.02;;;7.13;;
71150;SDS011;59071;42.138;24.768;2023-12-28T06:49:36;15.63;;;8.00;;
71150;SDS011;59071;42.138;24.768;2023-12-28T06:52:02;17.15;;;8.95;;
71150;SDS011;59071;42.138;24.768;2023-12-28T06:54:27;21.55;;;10.48;;
71150;SDS011;59071;42.138;24.768;2023-12-28T06:56:52;15.38;;;7.60;;
71150;SDS011;59071;42.138;24.768;2023-12-28T06:59:18;13.48;;;7.72;;
71150;SDS011;59071;42.138;24.768;2023-12-28T07:01:43;16.40;;;8.68;;
71150;SDS011;59071;42.138;24.768;2023-12-28T07:04:13;11.68;;;7.13;;
71150;SDS011;59071;42.138;24.768;2023-12-28T07:06:38;14.23;;;7.55;;
71150;SDS011;59071;42.138;24.768;2023-12-28T07:09:04;17.25;;;8.25;;
71150;SDS011;59071;42.138;24.768;2023-12-28T07:11:29;20.48;;;8.57;;
71150;SDS011;59071;42.138;24.768;2023-12-28T07:13:55;20.85;;;10.63;;
71150;SDS011;59071;42.138;24.768;2023-12-28T07:16:20;19.00;;;10.93;;
71150;SDS011;59071;42.138;24.768;2023-12-28T07:18:45;23.85;;;10.35;;
71150;SDS011;59071;42.138;24.768;2023-12-28T07:21:11;23.10;;;10.80;;
71150;SDS011;59071;42.138;24.768;2023-12-28T07:23:37;20.13;;;11.32;;
71150;SDS011;59071;42.138;24.768;2023-12-28T07:26:03;22.48;;;11.38;;
71150;SDS011;59071;42.138;24.768;2023-12-28T07:28:29;19.83;;;11.15;;
71150;SDS011;59071;42.138;24.768;2023-12-28T07:30:54;17.63;;;10.02;;
71150;SDS011;59071;42.138;24.768;2023-12-28T07:33:19;16.98;;;9.15;;
71150;SDS011;59071;42.138;24.768;2023-12-28T07:35:45;15.70;;;8.52;;
71150;SDS011;59071;42.138;24.768;2023-12-28T07:38:10;18.25;;;8.95;;
71150;SDS011;59071;42.138;24.768;2023-12-28T07:40:36;21.17;;;9.15;;
71150;SDS011;59071;42.138;24.768;2023-12-28T07:43:02;17.17;;;9.02;;
71150;SDS011;59071;42.138;24.768;2023-12-28T07:45:28;17.35;;;9.25;;
71150;SDS011;59071;42.138;24.768;2023-12-28T07:47:54;16.23;;;9.32;;
71150;SDS011;59071;42.138;24.768;2023-12-28T07:50:19;19.17;;;9.63;;
71150;SDS011;59071;42.138;24.768;2023-12-28T07:52:45;16.38;;;9.43;;
71150;SDS011;59071;42.138;24.768;2023-12-28T07:55:11;20.08;;;9.80;;
71150;SDS011;59071;42.138;24.768;2023-12-28T07:57:37;17.35;;;9.55;;
71150;SDS011;59071;42.138;24.768;2023-12-28T08:00:02;15.10;;;9.30;;
71150;SDS011;59071;42.138;24.768;2023-12-28T08:02:28;16.00;;;9.73;;
71150;SDS011;59071;42.138;24.768;2023-12-28T08:04:54;16.88;;;8.85;;
71150;SDS011;59071;42.138;24.768;2023-12-28T08:07:19;22.85;;;10.50;;
71150;SDS011;59071;42.138;24.768;2023-12-28T08:09:45;19.25;;;10.02;;
71150;SDS011;59071;42.138;24.768;2023-12-28T08:12:10;22.02;;;10.27;;
71150;SDS011;59071;42.138;24.768;2023-12-28T08:14:35;22.05;;;9.93;;
71150;SDS011;59071;42.138;24.768;2023-12-28T08:17:01;19.17;;;9.90;;
71150;SDS011;59071;42.138;24.768;2023-12-28T08:19:26;21.85;;;10.13;;
71150;SDS011;59071;42.138;24.768;2023-12-28T08:21:52;18.00;;;9.18;;
71150;SDS011;59071;42.138;24.768;2023-12-28T08:24:17;12.60;;;7.53;;
71150;SDS011;59071;42.138;24.768;2023-12-28T08:26:42;15.15;;;8.05;;
71150;SDS011;59071;42.138;24.768;2023-12-28T08:29:08;14.70;;;8.38;;
71150;SDS011;59071;42.138;24.768;2023-12-28T08:31:33;12.88;;;7.95;;
71150;SDS011;59071;42.138;24.768;2023-12-28T08:33:58;13.95;;;8.27;;
71150;SDS011;59071;42.138;24.768;2023-12-28T08:36:24;13.45;;;8.43;;
71150;SDS011;59071;42.138;24.768;2023-12-28T08:38:49;13.35;;;8.00;;
71150;SDS011;59071;42.138;24.768;2023-12-28T08:41:18;13.32;;;8.60;;
71150;SDS011;59071;42.138;24.768;2023-12-28T08:43:49;15.32;;;8.57;;
71150;SDS011;59071;42.138;24.768;2023-12-28T08:46:14;19.52;;;9.10;;
71150;SDS011;59071;42.138;24.768;2023-12-28T08:48:40;16.45;;;8.95;;
71150;SDS011;59071;42.138;24.768;2023-12-28T08:51:06;18.50;;;8.82;;
71150;SDS011;59071;42.138;24.768;2023-12-28T08:53:31;15.23;;;8.70;;
71150;SDS011;59071;42.138;24.768;2023-12-28T08:55:57;19.33;;;9.20;;
71150;SDS011;59071;42.138;24.768;2023-12-28T08:58:22;18.95;;;10.15;;
71150;SDS011;59071;42.138;24.768;2023-12-28T09:00:48;19.55;;;10.75;;
71150;SDS011;59071;42.138;24.768;2023-12-28T09:03:13;20.70;;;10.43;;
71150;SDS011;59071;42.138;24.768;2023-12-28T09:05:39;18.48;;;9.85;;
71150;SDS011;59071;42.138;24.768;2023-12-28T09:08:04;18.20;;;9.98;;
71150;SDS011;59071;42.138;24.768;2023-12-28T09:10:30;18.13;;;9.68;;
71150;SDS011;59071;42.138;24.768;2023-12-28T09:12:56;15.90;;;8.68;;
71150;SDS011;59071;42.138;24.768;2023-12-28T09:15:21;12.15;;;7.90;;
71150;SDS011;59071;42.138;24.768;2023-12-28T09:17:47;11.20;;;8.13;;
71150;SDS011;59071;42.138;24.768;2023-12-28T09:20:12;13.02;;;8.05;;
71150;SDS011;59071;42.138;24.768;2023-12-28T09:22:38;11.20;;;7.22;;
71150;SDS011;59071;42.138;24.768;2023-12-28T09:25:03;15.38;;;8.00;;
71150;SDS011;59071;42.138;24.768;2023-12-28T09:27:30;15.48;;;7.78;;
71150;SDS011;59071;42.138;24.768;2023-12-28T09:29:55;16.90;;;8.30;;
71150;SDS011;59071;42.138;24.768;2023-12-28T09:32:21;13.05;;;7.15;;
71150;SDS011;59071;42.138;24.768;2023-12-28T09:34:46;13.48;;;7.78;;
71150;SDS011;59071;42.138;24.768;2023-12-28T09:37:12;14.10;;;7.53;;
71150;SDS011;59071;42.138;24.768;2023-12-28T09:39:37;12.52;;;7.72;;
71150;SDS011;59071;42.138;24.768;2023-12-28T09:42:04;14.88;;;7.50;;
71150;SDS011;59071;42.138;24.768;2023-12-28T09:44:33;13.10;;;8.00;;
71150;SDS011;59071;42.138;24.768;2023-12-28T09:47:03;13.02;;;7.97;;
71150;SDS011;59071;42.138;24.768;2023-12-28T09:49:31;13.75;;;8.65;;
71150;SDS011;59071;42.138;24.768;2023-12-28T09:51:58;12.88;;;8.50;;
71150;SDS011;59071;42.138;24.768;2023-12-28T09:54:23;16.45;;;8.85;;
71150;SDS011;59071;42.138;24.768;2023-12-28T09:56:49;16.15;;;8.60;;
71150;SDS011;59071;42.138;24.768;2023-12-28T09:59:14;14.65;;;8.38;;
71150;SDS011;59071;42.138;24.768;2023-12-28T10:01:42;18.00;;;8.90;;
71150;SDS011;59071;42.138;24.768;2023-12-28T10:04:10;16.65;;;8.98;;
71150;SDS011;59071;42.138;24.768;2023-12-28T10:06:36;18.25;;;9.32;;
71150;SDS011;59071;42.138;24.768;2023-12-28T10:09:01;17.38;;;9.48;;
71150;SDS011;59071;42.138;24.768;2023-12-28T10:11:26;19.38;;;8.88;;
71150;SDS011;59071;42.138;24.768;2023-12-28T10:13:53;22.05;;;8.65;;
71150;SDS011;59071;42.138;24.768;2023-12-28T10:16:18;18.67;;;8.27;;
71150;SDS011;59071;42.138;24.768;2023-12-28T10:18:44;18.67;;;8.63;;
71150;SDS011;59071;42.138;24.768;2023-12-28T10:21:10;13.32;;;7.18;;
71150;SDS011;59071;42.138;24.768;2023-12-28T10:23:38;13.88;;;7.90;;
71150;SDS011;59071;42.138;24.768;2023-12-28T10:26:04;16.33;;;9.18;;
71150;SDS011;59071;42.138;24.768;2023-12-28T10:28:31;17.85;;;8.93;;
71150;SDS011;59071;42.138;24.768;2023-12-28T10:30:58;16.17;;;9.27;;
71150;SDS011;59071;42.138;24.768;2023-12-28T10:33:23;21.30;;;11.18;;
71150;SDS011;59071;42.138;24.768;2023-12-28T10:35:51;12.77;;;8.15;;
71150;SDS011;59071;42.138;24.768;2023-12-28T10:38:17;13.70;;;7.07;;
71150;SDS011;59071;42.138;24.768;2023-12-28T10:40:44;14.98;;;7.65;;
71150;SDS011;59071;42.138;24.768;2023-12-28T10:43:11;12.30;;;7.82;;
71150;SDS011;59071;42.138;24.768;2023-12-28T10:45:39;15.43;;;7.55;;
71150;SDS011;59071;42.138;24.768;2023-12-28T10:50:42;15.07;;;8.30;;
71150;SDS011;59071;42.138;24.768;2023-12-28T10:56:03;16.67;;;7.90;;
71150;SDS011;59071;42.138;24.768;2023-12-28T11:01:22;16.92;;;8.00;;
71150;SDS011;59071;42.138;24.768;2023-12-28T11:03:52;17.10;;;8.23;;
71150;SDS011;59071;42.138;24.768;2023-12-28T11:06:39;19.65;;;9.48;;
71150;SDS011;59071;42.138;24.768;2023-12-28T11:09:07;15.70;;;8.10;;
71150;SDS011;59071;42.138;24.768;2023-12-28T11:11:35;15.27;;;8.75;;
71150;SDS011;59071;42.138;24.768;2023-12-28T11:14:01;14.90;;;8.30;;
71150;SDS011;59071;42.138;24.768;2023-12-28T11:16:28;13.55;;;8.00;;
71150;SDS011;59071;42.138;24.768;2023-12-28T11:18:55;13.95;;;8.18;;
71150;SDS011;59071;42.138;24.768;2023-12-28T11:21:21;13.52;;;7.55;;
71150;SDS011;59071;42.138;24.768;2023-12-28T11:23:48;12.02;;;7.63;;
71150;SDS011;59071;42.138;24.768;2023-12-28T11:26:18;15.10;;;7.82;;
71150;SDS011;59071;42.138;24.768;2023-12-28T11:28:46;15.02;;;7.93;;
71150;SDS011;59071;42.138;24.768;2023-12-28T11:31:16;16.80;;;7.70;;
71150;SDS011;59071;42.138;24.768;2023-12-28T11:33:45;14.32;;;7.50;;
71150;SDS011;59071;42.138;24.768;2023-12-28T11:38:47;12.93;;;7.45;;
71150;SDS011;59071;42.138;24.768;2023-12-28T11:41:19;14.57;;;7.55;;
71150;SDS011;59071;42.138;24.768;2023-12-28T11:43:51;13.43;;;7.90;;
71150;SDS011;59071;42.138;24.768;2023-12-28T11:46:18;15.02;;;8.00;;
71150;SDS011;59071;42.138;24.768;2023-12-28T11:48:45;16.33;;;8.05;;
71150;SDS011;59071;42.138;24.768;2023-12-28T11:51:10;13.52;;;7.45;;
71150;SDS011;59071;42.138;24.768;2023-12-28T11:53:36;14.25;;;8.10;;
71150;SDS011;59071;42.138;24.768;2023-12-28T11:56:01;18.65;;;8.10;;
71150;SDS011;59071;42.138;24.768;2023-12-28T11:58:28;12.57;;;7.93;;
71150;SDS011;59071;42.138;24.768;2023-12-28T12:00:53;13.77;;;7.20;;
71150;SDS011;59071;42.138;24.768;2023-12-28T12:03:19;13.40;;;7.80;;
71150;SDS011;59071;42.138;24.768;2023-12-28T12:05:44;19.30;;;8.15;;
71150;SDS011;59071;42.138;24.768;2023-12-28T12:08:10;16.55;;;8.00;;
71150;SDS011;59071;42.138;24.768;2023-12-28T12:10:38;20.38;;;8.93;;
71150;SDS011;59071;42.138;24.768;2023-12-28T12:13:04;17.85;;;7.55;;
71150;SDS011;59071;42.138;24.768;2023-12-28T12:15:30;14.98;;;7.60;;
71150;SDS011;59071;42.138;24.768;2023-12-28T12:17:55;14.07;;;7.03;;
71150;SDS011;59071;42.138;24.768;2023-12-28T12:20:22;18.13;;;7.40;;
71150;SDS011;59071;42.138;24.768;2023-12-28T12:22:48;13.77;;;6.80;;
71150;SDS011;59071;42.138;24.768;2023-12-28T12:25:14;18.88;;;7.03;;
71150;SDS011;59071;42.138;24.768;2023-12-28T12:27:40;18.42;;;6.88;;
71150;SDS011;59071;42.138;24.768;2023-12-28T12:30:06;12.90;;;7.82;;
71150;SDS011;59071;42.138;24.768;2023-12-28T12:32:32;15.25;;;7.28;;
71150;SDS011;59071;42.138;24.768;2023-12-28T12:34:58;12.85;;;7.22;;
71150;SDS011;59071;42.138;24.768;2023-12-28T12:37:24;15.80;;;7.53;;
71150;SDS011;59071;42.138;24.768;2023-12-28T12:39:50;14.10;;;7.22;;
71150;SDS011;59071;42.138;24.768;2023-12-28T12:42:15;18.20;;;7.35;;
71150;SDS011;59071;42.138;24.768;2023-12-28T12:44:42;16.17;;;8.00;;
71150;SDS011;59071;42.138;24.768;2023-12-28T12:47:07;14.98;;;7.70;;
71150;SDS011;59071;42.138;24.768;2023-12-28T12:49:32;16.98;;;7.75;;
71150;SDS011;59071;42.138;24.768;2023-12-28T12:51:58;11.85;;;7.00;;
71150;SDS011;59071;42.138;24.768;2023-12-28T12:54:23;15.20;;;7.13;;
71150;SDS011;59071;42.138;24.768;2023-12-28T12:56:49;17.73;;;7.63;;
71150;SDS011;59071;42.138;24.768;2023-12-28T12:59:15;12.50;;;6.88;;
71150;SDS011;59071;42.138;24.768;2023-12-28T13:01:43;13.15;;;6.93;;
71150;SDS011;59071;42.138;24.768;2023-12-28T13:04:09;15.30;;;6.82;;
71150;SDS011;59071;42.138;24.768;2023-12-28T13:06:34;14.07;;;6.60;;
71150;SDS011;59071;42.138;24.768;2023-12-28T13:09:00;14.43;;;6.60;;
71150;SDS011;59071;42.138;24.768;2023-12-28T13:11:25;14.20;;;6.68;;
71150;SDS011;59071;42.138;24.768;2023-12-28T13:13:53;11.50;;;6.82;;
71150;SDS011;59071;42.138;24.768;2023-12-28T13:16:18;13.13;;;7.10;;
71150;SDS011;59071;42.138;24.768;2023-12-28T13:18:44;11.73;;;7.22;;
71150;SDS011;59071;42.138;24.768;2023-12-28T13:21:09;13.75;;;7.68;;
71150;SDS011;59071;42.138;24.768;2023-12-28T13:23:35;13.35;;;6.72;;
71150;SDS011;59071;42.138;24.768;2023-12-28T13:26:00;16.42;;;7.18;;
71150;SDS011;59071;42.138;24.768;2023-12-28T13:28:25;12.27;;;7.32;;
71150;SDS011;59071;42.138;24.768;2023-12-28T13:30:51;11.90;;;6.80;;
71150;SDS011;59071;42.138;24.768;2023-12-28T13:33:20;14.82;;;7.30;;
71150;SDS011;59071;42.138;24.768;2023-12-28T13:35:46;14.68;;;7.53;;
71150;SDS011;59071;42.138;24.768;2023-12-28T13:38:11;15.68;;;7.68;;
71150;SDS011;59071;42.138;24.768;2023-12-28T13:40:36;15.95;;;7.28;;
71150;SDS011;59071;42.138;24.768;2023-12-28T13:43:02;15.60;;;6.95;;
71150;SDS011;59071;42.138;24.768;2023-12-28T13:45:27;16.95;;;7.90;;
71150;SDS011;59071;42.138;24.768;2023-12-28T13:47:52;11.02;;;7.05;;
71150;SDS011;59071;42.138;24.768;2023-12-28T13:50:18;16.50;;;7.70;;
71150;SDS011;59071;42.138;24.768;2023-12-28T13:52:44;20.90;;;8.70;;
71150;SDS011;59071;42.138;24.768;2023-12-28T13:55:10;19.40;;;8.05;;
71150;SDS011;59071;42.138;24.768;2023-12-28T13:57:36;15.15;;;7.22;;
71150;SDS011;59071;42.138;24.768;2023-12-28T14:00:02;19.92;;;8.82;;
71150;SDS011;59071;42.138;24.768;2023-12-28T14:02:28;14.32;;;8.45;;
71150;SDS011;59071;42.138;24.768;2023-12-28T14:04:53;22.27;;;8.85;;
71150;SDS011;59071;42.138;24.768;2023-12-28T14:07:21;20.48;;;9.32;;
71150;SDS011;59071;42.138;24.768;2023-12-28T14:09:46;15.80;;;9.18;;
71150;SDS011;59071;42.138;24.768;2023-12-28T14:12:12;22.42;;;9.68;;
71150;SDS011;59071;42.138;24.768;2023-12-28T14:14:37;18.35;;;9.10;;
71150;SDS011;59071;42.138;24.768;2023-12-28T14:17:03;20.95;;;9.95;;
71150;SDS011;59071;42.138;24.768;2023-12-28T14:19:29;18.73;;;9.35;;
71150;SDS011;59071;42.138;24.768;2023-12-28T14:21:55;21.02;;;9.02;;
71150;SDS011;59071;42.138;24.768;2023-12-28T14:24:21;16.25;;;9.32;;
71150;SDS011;59071;42.138;24.768;2023-12-28T14:26:46;18.33;;;9.32;;